createdAt,value
2018-12-13T00:35:39.722Z,1020.3
2018-12-13T00:46:26.209Z,1020.1
2018-12-13T01:10:03.127Z,1020.1
2018-12-13T01:20:14.509Z,1020.1
2018-12-13T01:30:26.298Z,1020.1
2018-12-13T01:40:40.148Z,1020.1
2018-12-13T01:50:53.423Z,1020.1
2018-12-13T02:01:06.587Z,1020.0
2018-12-13T02:11:52.218Z,1019.7
2018-12-13T02:22:05.498Z,1019.7
2018-12-13T02:32:18.836Z,1019.7
2018-12-13T02:42:31.869Z,1019.6
2018-12-13T02:52:45.068Z,1019.7
2018-12-13T03:02:58.434Z,1019.7
2018-12-13T03:13:11.338Z,1019.6
2018-12-13T03:24:59.183Z,1019.6
2018-12-13T03:37:38.670Z,1019.4
2018-12-13T03:50:34.795Z,1019.4
2018-12-13T04:06:57.842Z,1019.4
2018-12-13T04:22:03.701Z,1019.1
2018-12-13T04:34:52.764Z,1019.0
2018-12-13T04:48:06.809Z,1019.1
2018-12-13T04:58:39.074Z,1019.1
2018-12-13T06:07:30.154Z,1019.0
2018-12-13T06:18:23.269Z,1019.0
2018-12-13T07:38:58.701Z,1019.2
2018-12-13T08:10:18.470Z,1019.2
2018-12-13T08:33:08.897Z,1019.0
2018-12-13T09:00:29.630Z,1019.1
2018-12-13T09:17:28.845Z,1019.1
2018-12-13T09:28:14.262Z,1019.2
2018-12-13T09:38:27.476Z,1019.2
2018-12-13T09:48:40.906Z,1019.2
2018-12-13T09:58:53.914Z,1019.4
2018-12-13T10:09:07.206Z,1019.3
2018-12-13T10:19:20.338Z,1019.2
2018-12-13T10:29:33.573Z,1019.1
2018-12-13T10:39:46.955Z,1019.0
2018-12-13T10:49:58.076Z,1018.9
2018-12-13T11:00:11.160Z,1018.9
2018-12-13T11:11:19.832Z,1018.7
2018-12-13T11:21:33.218Z,1018.6
2018-12-13T11:31:46.578Z,1018.5
2018-12-13T11:41:59.801Z,1018.2
2018-12-13T11:52:12.913Z,1018.2
2018-12-13T12:02:26.345Z,1018.1
2018-12-13T12:12:39.594Z,1017.9
2018-12-13T12:22:52.628Z,1017.9
2018-12-13T12:33:06.216Z,1017.7
2018-12-13T12:43:19.098Z,1017.7
2018-12-13T12:53:32.390Z,1017.7
2018-12-13T13:03:45.623Z,1017.7
2018-12-13T13:13:58.742Z,1017.6
2018-12-13T13:24:09.995Z,1017.7
2018-12-13T13:34:24.426Z,1017.6
2018-12-13T13:44:37.441Z,1017.6
2018-12-13T13:54:50.596Z,1017.7
2018-12-13T14:05:03.948Z,1017.7
2018-12-13T14:15:17.131Z,1017.6
2018-12-13T14:25:28.149Z,1017.6
2018-12-13T14:35:41.550Z,1017.5
2018-12-13T14:45:54.587Z,1017.5
2018-12-13T14:56:08.136Z,1017.5
2018-12-13T15:06:20.857Z,1017.6
2018-12-13T15:16:34.270Z,1017.6
2018-12-13T15:27:22.098Z,1017.6
2018-12-13T15:50:23.215Z,1017.8
2018-12-13T16:00:39.572Z,1017.7
2018-12-13T16:11:27.270Z,1017.7
2018-12-13T16:21:44.814Z,1017.8
2018-12-13T16:32:12.826Z,1017.8
2018-12-13T16:43:09.227Z,1017.7
2018-12-13T16:54:06.808Z,1017.6
2018-12-13T17:04:24.964Z,1017.7
2018-12-13T17:14:42.489Z,1017.6
2018-12-13T17:25:01.797Z,1017.7
2018-12-13T17:36:30.224Z,1017.6
2018-12-13T17:48:04.851Z,1017.7
2018-12-13T17:59:13.567Z,1017.6
2018-12-13T18:09:30.102Z,1017.7
2018-12-13T18:20:19.060Z,1017.6
2018-12-13T18:31:21.916Z,1017.7
2018-12-13T18:41:49.557Z,1017.6
2018-12-13T18:52:38.636Z,1017.5
2018-12-13T19:03:29.657Z,1017.7
2018-12-13T19:14:23.015Z,1017.6
2018-12-13T19:24:39.548Z,1017.6
2018-12-13T19:35:54.133Z,1017.7
2018-12-13T19:47:32.078Z,1017.8
2018-12-13T19:57:49.873Z,1017.9
2018-12-13T20:08:08.927Z,1017.9
2018-12-13T20:19:04.351Z,1018.1
2018-12-13T20:29:55.123Z,1018.2
2018-12-13T20:40:53.159Z,1018.3
2018-12-13T20:51:56.806Z,1018.4
2018-12-13T21:03:07.210Z,1018.3
2018-12-13T21:13:24.132Z,1018.4
2018-12-13T21:24:23.773Z,1018.4
2018-12-13T22:19:06.503Z,1018.2
2018-12-13T22:29:53.264Z,1018.2
2018-12-13T22:40:38.282Z,1018.3
2018-12-13T22:50:51.866Z,1018.4
2018-12-13T23:01:05.826Z,1018.5
2018-12-13T23:11:52.016Z,1018.5
2018-12-13T23:22:36.809Z,1018.4
2018-12-13T23:32:50.713Z,1018.3
2018-12-13T23:43:35.714Z,1018.3
2018-12-13T23:53:49.350Z,1018.2
